LIME/BGY METAR and TAF weather

Enter ICAO airport designator
Station Type Date Time Source
LIME METAR 2020/09/20 07:50 UTC NOAA

LIME 200750Z VRB01KT 8000 BKN030 20/16 Q1017 NOSIG


Station Type Date Time Source
LIME Decoded METAR 2020/09/20 07:50 UTC NOAA

Bergamo / Orio Al Serio, Italy (LIME) 45-40N 009-42E 237M
Sep 20, 2020 - 03:50 AM EDT / 2020.09.20 0750 UTC
Wind: Variable at 1 MPH (1 KT):0
Visibility: 4 mile(s):0
Sky conditions: mostly cloudy
Temperature: 68 F (20 C)
Dew Point: 60 F (16 C)
Relative Humidity: 77%
Pressure (altimeter): 30.03 in. Hg (1017 hPa)
ob: LIME 200750Z VRB01KT 8000 BKN030 20/16 Q1017 NOSIG
cycle: 8

Station Type Date Time Source
LIME TAF 2020/09/20 06:21 UTC NOAA

TAF LIME 200500Z 2006/2106 VRB05KT 9000 SCT050
TEMPO 2012/2018 4000 SHRA

Example: see airport list